Relevés horaires Beauvechain (Belgique)


Relevés horaires à Beauvechain - Dimanche 28 Août 2016
Heure UTC1 Température [°C] Vent [km/h] Hum. [%] Pres.4 [hPa] Visi. [Km] Nébu. [octa] Préc.5 [mm] Cond.
2m. Res. Ros. Dir.2 Vit. Moy. Raf.3
23:00 16.1 16.1 12.8 NNO 0.0 0.0 0.0 81 1017.7(0.4/3h) 20 -- -- --
22:00 16.7 16.7 13.0 NNO 0.0 0.0 0.0 79 1017.3(0.6/3h) 20 -- -- --
21:00 16.1 16.1 12.9 NNO 0.0 0.0 0.0 81 1017.3(1.4/3h) 20 -- -- --
20:00 17.3 17.3 13.0 NNO 0.0 0.0 0.0 76 1017.2(1.6/3h) 20 -- -- --
19:00 18.6 18.6 13.6 NNO 0.0 0.0 0.0 73 1016.7(1.2/3h) 20 -- -- --
18:00 20.8 20.8 13.1 NNO 0.0 0.0 0.0 61 1015.6(0.3/3h) 20 -- 0/0h
--
17:00 21.3 21.3 13.1 NNO 0.0 0.0 0.0 60 1015.3(0.0/3h) 20 -- -- --
16:00 23.0 23.0 13.0 NNO 0.0 0.0 0.0 53 1015.2(0.1/3h) 20 -- -- --
15:00 23.2 23.2 12.6 NNO 0.0 0.0 0.0 51 1015.1(0.4/3h) 20 -- -- --
14:00 22.5 22.5 14.1 NNO 0.0 0.0 0.0 59 1015.2(0.4/3h) 20 -- -- --
13:00 23.1 23.1 15.4 NNO 0.0 0.0 0.0 62 1015.1(0.7/3h) 19 -- -- --
12:00 23.4 23.4 13.6 NNO 0.0 -- -- 54 1014.7 20 -- 0/0h
--
11:00 22.2 22.2 16.7 NNO 0.0 0.0 0.0 71 1014.7(1.6/3h) 20 -- -- --
10:00 21.6 21.6 17.2 NNO 0.0 0.0 0.0 76 1014.3(1.9/3h) 14 -- -- --
09:00 22.7 22.7 17.8 NNO 0.0 0.0 0.0 74 1013.7(2.0/3h) 19 -- -- --
08:00 21.7 21.7 17.5 NNO 0.0 0.0 0.0 77 1013.2(1.2/3h) 20 -- -- --
07:00 23.1 23.1 15.9 NNO 0.0 0.0 0.0 64 1012.2(0.1/3h) 20 -- -- --
06:00 21.7 21.7 15.8 NNO 0.0 -- -- 69 1011.7 20 -- 0/0h
--
05:00 20.3 20.3 16.0 NNO 0.0 0.0 0.0 76 1011.8(-0.9/3h) 20 -- -- --
04:00 21.2 21.2 16.0 NNO 0.0 0.0 0.0 72 1012.2(-0.7/3h) 20 -- -- --
03:00 21.7 21.7 16.2 NNO 0.0 0.0 0.0 71 1012.5(-0.8/3h) 20 -- -- --
02:00 21.4 21.4 16.2 NNO 0.0 0.0 0.0 72 1012.7(-1.0/3h) 20 -- -- --
01:00 22.2 22.2 16.6 NNO 0.0 0.0 0.0 71 1013(-0.9/3h) 20 -- -- --
00:00 22.4 22.4 16.2 NNO 0.0 0.0 0.0 68 1013.3(0.0/3h) 20 -- 0/0h
--

1 Coordinated Universal Time. Actuellement il est 07:00 locale et 06:00 UTC.

2 Le vent souffle depuis la direction indiquée vers la direction oposée.

3 Les rafales max. sont disponible 40 min après l'heure du relevé.

4 Pour les stations d'altitude (plus de 600m) le géopotentiel du niveau le plus proche de la pression obligatoire est indiqué.

5 Les stations disposant d'un diffuseur peuvent indiquer "trace". Cela signifie que des précipitations ont touchés le sol mais que la quantité est inférieure à 0.1 mm.

Récapitulatif de la journée
Température [°C] Vent [km/h] Ensoleillement4 [h] Precipitations totale5 [mm] Pression [Hpa]
Min1 Max.2 Moy.3 Max. Min Max.
-- 24.3 0 0.0 0 h 0 min 0 1011.7 1017.7

1 Température minimale relevée entre 18:00 UTC la veille et 18:00 UTC le jour donné.

2 Température maximale relevée entre 06:00 UTC le jour donné et 06:00 UTC le lendemain.

3 Vent moyen de la journée basé sur les relevés horaires.

4 Ensoleillement en heures relevé entre 06:00 UTC la veille et 06:00 UTC le jour donné.

5 Précipitations totales tombées entre 06:00 UTC la jour donné et 06:00 UTC le lendemain.

Graphiques horaires